createdAt,value
2022-10-28T00:02:21.889Z,23.75
2022-10-28T00:04:51.166Z,20.40
2022-10-28T00:07:20.370Z,21.68
2022-10-28T00:09:50.598Z,22.67
2022-10-28T00:12:19.822Z,21.15
2022-10-28T00:14:49.165Z,22.85
2022-10-28T00:17:18.477Z,23.10
2022-10-28T00:19:47.819Z,21.40
2022-10-28T00:22:17.080Z,23.50
2022-10-28T00:24:46.601Z,20.25
2022-10-28T00:27:15.973Z,21.87
2022-10-28T00:29:45.315Z,19.92
2022-10-28T00:32:14.789Z,22.80
2022-10-28T00:34:44.172Z,24.70
2022-10-28T00:37:13.600Z,24.20
2022-10-28T00:39:42.887Z,20.12
2022-10-28T00:42:12.715Z,22.48
2022-10-28T00:44:51.132Z,20.43
2022-10-28T00:47:29.438Z,20.43
2022-10-28T00:50:07.523Z,22.85
2022-10-28T00:52:37.122Z,22.37
2022-10-28T00:55:06.914Z,26.17
2022-10-28T00:57:38.207Z,26.42
2022-10-28T01:00:08.985Z,26.62
2022-10-28T01:02:41.591Z,24.92
2022-10-28T01:07:39.898Z,22.95
2022-10-28T01:10:09.868Z,27.27
2022-10-28T01:12:42.526Z,23.90
2022-10-28T01:18:11.535Z,25.37
2022-10-28T01:20:56.246Z,26.53
2022-10-28T01:23:31.647Z,26.70
2022-10-28T01:26:22.000Z,29.05
2022-10-28T01:29:09.810Z,27.40
2022-10-28T01:32:00.058Z,29.57
2022-10-28T01:34:35.320Z,26.87
2022-10-28T01:37:13.414Z,28.77
2022-10-28T01:39:51.523Z,28.23
2022-10-28T01:42:30.031Z,28.57
2022-10-28T01:45:22.916Z,25.90
2022-10-28T01:47:58.207Z,25.52
2022-10-28T01:50:39.851Z,27.25
2022-10-28T01:53:18.086Z,24.47
2022-10-28T01:55:50.185Z,26.40
2022-10-28T01:58:21.991Z,23.90
2022-10-28T02:00:51.969Z,23.80
2022-10-28T02:03:21.245Z,23.15
2022-10-28T02:05:56.339Z,24.72
2022-10-28T02:08:28.712Z,24.87
2022-10-28T02:11:17.917Z,22.52
2022-10-28T02:13:56.643Z,26.25
2022-10-28T02:16:51.012Z,28.57
2022-10-28T02:19:23.455Z,24.05
2022-10-28T02:22:01.480Z,23.67
2022-10-28T02:24:43.028Z,25.50
2022-10-28T02:27:39.597Z,23.47
2022-10-28T02:30:12.212Z,25.62
2022-10-28T02:35:14.012Z,29.12
2022-10-28T02:37:46.211Z,25.60
2022-10-28T02:40:18.594Z,23.40
2022-10-28T02:42:54.015Z,22.32
2022-10-28T02:45:35.268Z,23.32
2022-10-28T02:48:23.205Z,22.65
2022-10-28T02:50:54.846Z,29.07
2022-10-28T02:53:30.249Z,20.25
2022-10-28T02:56:01.308Z,25.30
2022-10-28T02:58:31.076Z,20.65
2022-10-28T03:01:00.339Z,23.18
2022-10-28T03:03:29.676Z,18.75
2022-10-28T03:05:59.677Z,22.13
2022-10-28T03:08:29.080Z,23.55
2022-10-28T03:10:58.288Z,22.62
2022-10-28T03:13:27.527Z,21.27
2022-10-28T03:15:56.798Z,18.60
2022-10-28T03:18:26.294Z,19.80
2022-10-28T03:20:58.149Z,25.00
2022-10-28T03:23:26.466Z,22.32
2022-10-28T03:25:55.716Z,19.32
2022-10-28T03:28:25.041Z,21.15
2022-10-28T03:30:54.280Z,17.90
2022-10-28T03:33:23.689Z,21.75
2022-10-28T03:35:52.924Z,14.03
2022-10-28T03:38:22.148Z,19.45
2022-10-28T03:40:52.404Z,20.95
2022-10-28T03:43:21.780Z,16.60
2022-10-28T03:45:51.087Z,22.67
2022-10-28T03:48:20.408Z,18.23
2022-10-28T03:50:54.471Z,18.05
2022-10-28T03:53:27.553Z,18.87
2022-10-28T03:55:56.914Z,20.95
2022-10-28T03:58:26.739Z,20.77
2022-10-28T04:00:57.017Z,23.35
2022-10-28T04:03:26.871Z,18.70
2022-10-28T04:05:56.112Z,20.32
2022-10-28T04:08:25.414Z,20.80
2022-10-28T04:10:54.633Z,21.33
2022-10-28T04:13:23.892Z,20.80
2022-10-28T04:15:53.104Z,17.02
2022-10-28T04:18:22.523Z,19.20
2022-10-28T04:20:51.740Z,19.90
2022-10-28T04:23:21.129Z,18.98
2022-10-28T04:25:55.046Z,20.35
2022-10-28T04:28:27.945Z,16.77
2022-10-28T04:30:57.160Z,23.30
2022-10-28T04:33:26.654Z,22.95
2022-10-28T04:35:56.018Z,18.37
2022-10-28T04:38:25.785Z,22.70
2022-10-28T04:40:55.191Z,20.12
2022-10-28T04:43:24.637Z,19.77
2022-10-28T04:45:53.925Z,21.68
2022-10-28T04:48:23.359Z,19.07
2022-10-28T04:50:53.338Z,22.22
2022-10-28T04:53:22.562Z,19.95
2022-10-28T04:55:51.786Z,18.12
2022-10-28T04:58:21.043Z,20.72
2022-10-28T05:00:50.243Z,19.75
2022-10-28T05:03:19.557Z,20.95
2022-10-28T05:05:49.149Z,18.75
2022-10-28T05:08:18.490Z,18.73
2022-10-28T05:10:49.717Z,19.12
2022-10-28T05:13:19.813Z,19.15
2022-10-28T05:15:50.209Z,18.67
2022-10-28T05:18:19.812Z,25.37
2022-10-28T05:20:50.818Z,23.67
2022-10-28T05:23:20.303Z,15.50
2022-10-28T05:25:50.359Z,18.70
2022-10-28T05:28:21.738Z,19.82
2022-10-28T05:30:51.115Z,15.80
2022-10-28T05:33:20.509Z,23.30
2022-10-28T05:35:50.212Z,19.27
2022-10-28T05:38:19.590Z,16.52
2022-10-28T05:40:48.792Z,17.23
2022-10-28T05:43:18.123Z,20.72
2022-10-28T05:45:55.130Z,16.77
2022-10-28T05:48:24.863Z,24.77
2022-10-28T05:50:54.064Z,20.95
2022-10-28T05:53:23.615Z,15.25
2022-10-28T05:55:52.848Z,22.00
2022-10-28T05:58:22.088Z,15.95
2022-10-28T06:00:51.306Z,22.60
2022-10-28T06:03:20.737Z,19.60
2022-10-28T06:05:50.034Z,24.70
2022-10-28T06:08:19.535Z,21.15
2022-10-28T06:10:54.879Z,19.67
2022-10-28T06:13:24.648Z,19.37
2022-10-28T06:15:55.229Z,20.90
2022-10-28T06:18:24.791Z,24.27
2022-10-28T06:20:56.146Z,23.62
2022-10-28T06:23:27.577Z,20.68
2022-10-28T06:25:59.204Z,22.65
2022-10-28T06:28:29.201Z,19.73
2022-10-28T06:31:03.891Z,19.75
2022-10-28T06:33:33.550Z,16.20
2022-10-28T06:36:03.389Z,20.37
2022-10-28T06:38:32.603Z,20.50
2022-10-28T06:41:01.953Z,20.72
2022-10-28T06:43:31.195Z,21.55
2022-10-28T06:46:04.368Z,21.02
2022-10-28T06:48:35.286Z,17.15
2022-10-28T06:51:04.900Z,21.30
2022-10-28T06:53:34.133Z,20.05
2022-10-28T06:56:03.792Z,16.95
2022-10-28T06:58:33.010Z,17.70
2022-10-28T07:01:06.451Z,23.55
2022-10-28T07:03:35.957Z,20.35
2022-10-28T07:06:06.307Z,15.75
2022-10-28T07:08:35.639Z,18.90
2022-10-28T07:11:05.319Z,19.60
2022-10-28T07:13:34.720Z,19.45
2022-10-28T07:16:05.257Z,19.17
2022-10-28T07:18:34.552Z,20.97
2022-10-28T07:21:04.013Z,19.73
2022-10-28T07:23:34.407Z,15.78
2022-10-28T07:26:04.105Z,14.58
2022-10-28T07:28:33.576Z,25.40
2022-10-28T07:31:03.697Z,19.35
2022-10-28T07:33:33.048Z,16.27
2022-10-28T07:36:04.924Z,19.62
2022-10-28T07:38:34.817Z,19.17
2022-10-28T07:41:08.039Z,15.35
2022-10-28T07:43:38.935Z,21.05
2022-10-28T07:46:09.255Z,19.15
2022-10-28T07:48:39.226Z,19.42
2022-10-28T07:51:09.926Z,18.37
2022-10-28T07:53:39.137Z,20.50
2022-10-28T07:56:10.328Z,16.48
2022-10-28T07:58:39.603Z,19.45
2022-10-28T08:01:10.392Z,18.37
2022-10-28T08:03:39.891Z,14.53
2022-10-28T08:06:16.934Z,20.90
2022-10-28T08:08:48.104Z,20.65
2022-10-28T08:11:23.396Z,20.95
2022-10-28T08:13:53.897Z,14.93
2022-10-28T08:16:23.305Z,20.65
2022-10-28T08:18:53.305Z,20.25
2022-10-28T08:21:22.611Z,20.55
2022-10-28T08:23:52.004Z,16.82
2022-10-28T08:26:21.604Z,24.30
2022-10-28T08:28:51.036Z,17.85
2022-10-28T08:31:20.537Z,16.17
2022-10-28T08:33:49.915Z,14.87
2022-10-28T08:36:19.412Z,16.70
2022-10-28T08:38:48.941Z,16.85
2022-10-28T08:41:42.043Z,20.70
2022-10-28T08:44:23.392Z,17.55
2022-10-28T08:47:16.478Z,19.37
2022-10-28T08:49:49.360Z,16.77
2022-10-28T08:52:34.099Z,18.42
2022-10-28T08:55:18.364Z,15.75
2022-10-28T08:57:50.922Z,16.27
2022-10-28T09:03:14.871Z,27.62
2022-10-28T09:05:47.900Z,20.90
2022-10-28T09:08:32.493Z,17.37
2022-10-28T09:11:10.764Z,19.40
2022-10-28T09:13:49.444Z,19.20
2022-10-28T09:16:47.895Z,20.65
2022-10-28T09:19:29.144Z,16.97
2022-10-28T09:22:07.379Z,20.37
2022-10-28T09:24:48.870Z,18.98
2022-10-28T09:27:24.083Z,18.15
2022-10-28T09:30:19.807Z,17.92
2022-10-28T09:32:55.785Z,21.25
2022-10-28T09:35:27.972Z,21.37
2022-10-28T09:38:09.226Z,14.05
2022-10-28T09:40:41.104Z,16.45
2022-10-28T09:43:35.399Z,17.57
2022-10-28T09:46:10.733Z,12.95
2022-10-28T09:48:42.348Z,15.50
2022-10-28T09:51:14.791Z,22.87
2022-10-28T09:56:17.192Z,15.65
2022-10-28T09:58:47.723Z,17.82
2022-10-28T10:01:18.825Z,19.35
2022-10-28T10:03:52.060Z,18.40
2022-10-28T10:06:38.379Z,18.87
2022-10-28T10:09:09.474Z,14.45
2022-10-28T10:11:46.267Z,22.95
2022-10-28T10:14:24.850Z,17.20
2022-10-28T10:17:02.086Z,21.50
2022-10-28T10:19:51.151Z,17.45
2022-10-28T10:22:31.383Z,17.35
2022-10-28T10:25:00.802Z,15.50
2022-10-28T10:27:32.071Z,18.27
2022-10-28T10:30:01.838Z,17.25
2022-10-28T10:32:32.858Z,18.15
2022-10-28T10:35:09.245Z,15.15
2022-10-28T10:37:41.863Z,19.62
2022-10-28T10:40:31.327Z,15.10
2022-10-28T10:43:24.554Z,16.73
2022-10-28T10:46:08.938Z,22.40
2022-10-28T10:48:38.611Z,20.43
2022-10-28T10:51:10.514Z,19.15
2022-10-28T10:53:41.661Z,20.82
2022-10-28T10:56:13.801Z,16.35
2022-10-28T10:58:49.298Z,16.00
2022-10-28T11:01:24.162Z,22.42
2022-10-28T11:03:59.113Z,19.55
2022-10-28T11:06:34.243Z,16.35
2022-10-28T11:09:05.958Z,21.57
2022-10-28T11:11:40.675Z,20.60
2022-10-28T11:14:15.830Z,22.25
2022-10-28T11:16:50.921Z,20.97
2022-10-28T11:19:29.182Z,20.90
2022-10-28T11:22:24.450Z,18.02
2022-10-28T11:25:24.674Z,14.65
2022-10-28T11:28:24.465Z,18.95
2022-10-28T11:31:02.975Z,19.42
2022-10-28T11:33:39.143Z,20.50
2022-10-28T11:36:37.015Z,23.47
2022-10-28T11:39:09.574Z,21.80
2022-10-28T11:44:44.005Z,21.13
2022-10-28T11:47:34.491Z,19.10
2022-10-28T11:50:13.255Z,16.05
2022-10-28T11:52:45.929Z,20.75
2022-10-28T11:55:24.106Z,21.60
2022-10-28T12:00:48.827Z,21.20
2022-10-28T12:03:33.349Z,18.35
2022-10-28T12:06:08.444Z,25.08
2022-10-28T12:11:40.323Z,16.75
2022-10-28T12:16:45.477Z,20.68
2022-10-28T12:19:18.097Z,19.82
2022-10-28T12:21:51.207Z,15.65
2022-10-28T12:24:22.396Z,16.15
2022-10-28T12:27:03.519Z,17.62
2022-10-28T12:29:38.408Z,16.75
2022-10-28T12:32:10.969Z,23.50
2022-10-28T12:37:35.083Z,19.30
2022-10-28T12:40:33.126Z,21.82
2022-10-28T12:43:08.553Z,20.70
2022-10-28T12:45:39.431Z,21.93
2022-10-28T12:48:17.653Z,20.37
2022-10-28T12:50:54.928Z,18.80
2022-10-28T12:53:33.238Z,17.27
2022-10-28T12:56:03.858Z,22.35
2022-10-28T12:58:48.080Z,12.70
2022-10-28T13:01:19.294Z,18.62
2022-10-28T13:03:50.661Z,20.25
2022-10-28T13:06:42.653Z,20.68
2022-10-28T13:09:39.689Z,18.20
2022-10-28T13:12:15.135Z,24.47
2022-10-28T13:17:54.334Z,18.70
2022-10-28T13:20:26.986Z,16.50
2022-10-28T13:25:55.794Z,22.95
2022-10-28T13:28:30.711Z,14.73
2022-10-28T13:31:07.849Z,17.27
2022-10-28T13:33:39.292Z,18.52
2022-10-28T13:36:23.829Z,12.10
2022-10-28T13:38:59.877Z,18.17
2022-10-28T13:41:43.324Z,18.70
2022-10-28T13:44:17.705Z,16.45
2022-10-28T13:47:07.753Z,15.38
2022-10-28T13:49:38.462Z,20.43
2022-10-28T13:52:13.781Z,14.53
2022-10-28T13:54:49.548Z,19.90
2022-10-28T13:57:29.696Z,18.32
2022-10-28T14:00:04.802Z,15.75
2022-10-28T14:02:44.300Z,16.07
2022-10-28T14:05:18.617Z,17.25
2022-10-28T14:07:58.785Z,19.60
2022-10-28T14:10:30.520Z,19.25
2022-10-28T14:13:20.441Z,15.93
2022-10-28T14:15:50.882Z,20.82
2022-10-28T14:20:59.130Z,17.80
2022-10-28T14:23:31.934Z,19.05
2022-10-28T14:26:04.625Z,19.10
2022-10-28T14:28:38.197Z,19.85
2022-10-28T14:31:14.564Z,14.68
2022-10-28T14:33:46.298Z,21.70
2022-10-28T14:36:21.240Z,18.17
2022-10-28T14:42:27.058Z,16.87
2022-10-28T14:45:02.522Z,17.60
2022-10-28T14:47:46.786Z,14.35
2022-10-28T14:50:18.319Z,14.83
2022-10-28T14:52:48.842Z,12.28
2022-10-28T14:55:24.130Z,16.12
2022-10-28T14:57:53.929Z,19.82
2022-10-28T15:00:29.441Z,18.10
2022-10-28T15:02:58.777Z,15.85
2022-10-28T15:05:32.420Z,18.07
2022-10-28T15:08:04.489Z,18.25
2022-10-28T15:10:34.963Z,21.35
2022-10-28T15:13:04.777Z,18.07
2022-10-28T15:15:35.310Z,24.47
2022-10-28T15:18:07.671Z,20.25
2022-10-28T15:20:37.484Z,22.13
2022-10-28T15:23:18.357Z,19.30
2022-10-28T15:25:47.872Z,27.27
2022-10-28T15:28:17.144Z,26.10
2022-10-28T15:30:47.037Z,19.50
2022-10-28T15:33:21.593Z,21.60
2022-10-28T15:35:51.400Z,21.35
2022-10-28T15:38:32.909Z,23.75
2022-10-28T15:41:02.507Z,16.90
2022-10-28T15:43:32.540Z,18.25
2022-10-28T15:46:12.411Z,19.35
2022-10-28T15:48:41.692Z,23.67
2022-10-28T15:51:16.172Z,23.12
2022-10-28T15:53:46.599Z,19.30
2022-10-28T15:56:31.386Z,22.40
2022-10-28T15:59:20.060Z,17.02
2022-10-28T16:01:49.501Z,19.90
2022-10-28T16:04:27.920Z,24.02
2022-10-28T16:06:58.174Z,16.70
2022-10-28T16:09:38.137Z,16.60
2022-10-28T16:12:18.875Z,15.18
2022-10-28T16:14:59.811Z,18.20
2022-10-28T16:17:34.441Z,18.12
2022-10-28T16:20:18.367Z,20.27
2022-10-28T16:22:46.764Z,18.80
2022-10-28T16:25:20.064Z,25.68
2022-10-28T16:27:50.752Z,25.55
2022-10-28T16:30:20.021Z,20.08
2022-10-28T16:32:50.399Z,17.65
2022-10-28T16:35:22.468Z,20.75
2022-10-28T16:37:55.542Z,19.02
2022-10-28T16:40:49.744Z,18.00
2022-10-28T16:42:55.487Z,20.23
2022-10-28T16:45:25.053Z,18.60
2022-10-28T16:47:54.814Z,17.77
2022-10-28T16:50:24.291Z,16.95
2022-10-28T16:52:55.435Z,20.82
2022-10-28T16:55:24.671Z,19.60
2022-10-28T16:57:54.462Z,20.57
2022-10-28T17:00:23.912Z,18.92
2022-10-28T17:02:54.045Z,28.02
2022-10-28T17:05:24.570Z,24.95
2022-10-28T17:07:58.161Z,26.62
2022-10-28T17:10:27.933Z,19.57
2022-10-28T17:12:57.767Z,25.12
2022-10-28T17:15:27.419Z,25.05
2022-10-28T17:17:57.937Z,23.35
2022-10-28T17:20:27.540Z,26.20
2022-10-28T17:22:58.142Z,24.87
2022-10-28T17:25:28.031Z,25.88
2022-10-28T17:27:57.979Z,23.95
2022-10-28T17:30:27.715Z,22.95
2022-10-28T17:32:57.174Z,22.42
2022-10-28T17:35:27.274Z,22.67
2022-10-28T17:37:57.331Z,20.12
2022-10-28T17:40:27.056Z,17.27
2022-10-28T17:42:58.563Z,21.17
2022-10-28T17:45:28.120Z,24.47
2022-10-28T17:47:57.410Z,25.12
2022-10-28T17:50:26.722Z,24.52
2022-10-28T17:52:56.507Z,24.37
2022-10-28T17:55:26.240Z,24.82
2022-10-28T17:57:55.887Z,21.90
2022-10-28T18:00:26.064Z,33.85
2022-10-28T18:02:58.488Z,28.62
2022-10-28T18:05:27.914Z,31.95
2022-10-28T18:07:57.470Z,26.65
2022-10-28T18:10:27.127Z,38.02
2022-10-28T18:12:56.825Z,35.10
2022-10-28T18:15:26.636Z,43.98
2022-10-28T18:17:55.937Z,40.40
2022-10-28T18:20:25.203Z,39.53
2022-10-28T18:22:54.878Z,44.35
2022-10-28T18:25:24.409Z,31.17
2022-10-28T18:27:53.634Z,30.20
2022-10-28T18:30:23.159Z,35.43
2022-10-28T18:32:52.952Z,35.15
2022-10-28T18:35:22.793Z,40.05
2022-10-28T18:37:52.292Z,45.12
2022-10-28T18:40:21.858Z,34.05
2022-10-28T18:42:51.054Z,37.08
2022-10-28T18:45:20.399Z,33.18
2022-10-28T18:47:50.286Z,36.08
2022-10-28T18:50:19.811Z,38.53
2022-10-28T18:52:49.053Z,30.32
2022-10-28T18:55:18.534Z,44.18
2022-10-28T18:57:50.567Z,39.33
2022-10-28T19:00:20.747Z,43.05
2022-10-28T19:02:50.675Z,38.40
2022-10-28T19:05:20.846Z,32.78
2022-10-28T19:07:50.074Z,30.65
2022-10-28T19:10:19.403Z,24.85
2022-10-28T19:12:52.052Z,37.60
2022-10-28T19:15:19.824Z,32.73
2022-10-28T19:17:49.177Z,33.15
2022-10-28T19:23:04.338Z,32.42
2022-10-28T19:25:33.603Z,31.50
2022-10-28T19:28:03.022Z,31.73
2022-10-28T19:30:32.269Z,39.92
2022-10-28T19:33:01.656Z,33.98
2022-10-28T19:35:32.631Z,36.30
2022-10-28T19:38:01.960Z,45.03
2022-10-28T19:40:31.441Z,44.80
2022-10-28T19:43:00.769Z,42.78
2022-10-28T19:45:30.132Z,48.52
2022-10-28T19:48:03.368Z,43.28
2022-10-28T19:50:32.722Z,40.90
2022-10-28T19:53:02.141Z,29.48
2022-10-28T19:55:31.417Z,29.50
2022-10-28T19:58:00.657Z,26.87
2022-10-28T20:00:29.884Z,27.98
2022-10-28T20:02:59.307Z,33.38
2022-10-28T20:05:28.708Z,24.77
2022-10-28T20:07:58.002Z,34.95
2022-10-28T20:10:27.216Z,32.10
2022-10-28T20:12:56.763Z,32.88
2022-10-28T20:15:26.341Z,30.77
2022-10-28T20:17:56.013Z,36.05
2022-10-28T20:20:25.411Z,35.78
2022-10-28T20:22:55.228Z,34.15
2022-10-28T20:25:25.113Z,27.62
2022-10-28T20:27:54.992Z,30.72
2022-10-28T20:30:24.836Z,30.50
2022-10-28T20:32:55.826Z,32.03
2022-10-28T20:35:25.505Z,32.38
2022-10-28T20:37:58.109Z,40.70
2022-10-28T20:40:27.744Z,36.40
2022-10-28T20:42:57.575Z,32.93
2022-10-28T20:45:27.133Z,32.65
2022-10-28T20:47:56.693Z,32.90
2022-10-28T20:50:25.960Z,36.17
2022-10-28T20:52:55.663Z,36.28
2022-10-28T20:55:25.355Z,33.92
2022-10-28T20:57:54.688Z,31.97
2022-10-28T21:00:24.261Z,42.27
2022-10-28T21:02:55.802Z,47.05
2022-10-28T21:05:25.632Z,75.52
2022-10-28T21:07:55.437Z,50.33
2022-10-28T21:10:24.957Z,53.23
2022-10-28T21:12:54.254Z,35.83
2022-10-28T21:15:23.603Z,37.40
2022-10-28T21:17:53.533Z,41.65
2022-10-28T21:20:23.761Z,43.10
2022-10-28T21:22:53.422Z,38.78
2022-10-28T21:25:24.790Z,42.97
2022-10-28T21:27:54.245Z,41.40
2022-10-28T21:30:23.764Z,39.75
2022-10-28T21:32:53.547Z,40.83
2022-10-28T21:35:23.135Z,38.92
2022-10-28T21:37:52.961Z,41.08
2022-10-28T21:40:22.432Z,37.15
2022-10-28T21:42:51.893Z,41.20
2022-10-28T21:45:21.233Z,45.80
2022-10-28T21:47:50.935Z,55.10
2022-10-28T21:50:20.316Z,54.98
2022-10-28T21:52:49.762Z,41.73
2022-10-28T21:55:26.685Z,45.10
2022-10-28T21:57:50.045Z,41.33
2022-10-28T22:00:20.551Z,41.08
2022-10-28T22:02:49.869Z,36.20
2022-10-28T22:05:19.300Z,45.28
2022-10-28T22:07:48.518Z,40.58
2022-10-28T22:10:17.836Z,37.10
2022-10-28T22:12:47.081Z,45.28
2022-10-28T22:15:17.122Z,46.68
2022-10-28T22:17:46.384Z,40.98
2022-10-28T22:20:15.860Z,56.23
2022-10-28T22:22:45.267Z,53.85
2022-10-28T22:25:14.894Z,56.60
2022-10-28T22:27:44.982Z,47.13
2022-10-28T22:30:15.232Z,46.30
2022-10-28T22:32:44.443Z,43.02
2022-10-28T22:35:13.749Z,42.30
2022-10-28T22:37:43.044Z,42.03
2022-10-28T22:40:12.582Z,39.90
2022-10-28T22:42:41.808Z,43.48
2022-10-28T22:45:11.305Z,35.17
2022-10-28T22:47:40.760Z,36.40
2022-10-28T22:50:10.619Z,41.53
2022-10-28T22:52:40.081Z,40.63
2022-10-28T22:55:09.773Z,41.42
2022-10-28T22:57:39.162Z,46.60
2022-10-28T23:00:09.699Z,44.95
2022-10-28T23:02:39.317Z,34.83
2022-10-28T23:05:09.404Z,37.00
2022-10-28T23:07:38.653Z,33.80
2022-10-28T23:10:08.611Z,34.00
2022-10-28T23:12:37.872Z,39.58
2022-10-28T23:15:08.146Z,35.08
2022-10-28T23:17:37.369Z,35.28
2022-10-28T23:20:07.424Z,39.70
2022-10-28T23:22:36.654Z,38.88
2022-10-28T23:25:06.463Z,40.88
2022-10-28T23:27:35.683Z,32.75
2022-10-28T23:30:05.667Z,32.60
2022-10-28T23:32:34.924Z,31.68
2022-10-28T23:35:04.867Z,39.25
2022-10-28T23:37:34.352Z,35.28
2022-10-28T23:40:03.737Z,38.65
2022-10-28T23:42:33.061Z,32.90
2022-10-28T23:45:02.631Z,29.00
2022-10-28T23:47:31.876Z,33.60
2022-10-28T23:50:01.241Z,32.17
2022-10-28T23:52:30.482Z,30.27
2022-10-28T23:54:59.723Z,36.80
2022-10-28T23:57:28.949Z,41.65
2022-10-28T23:59:58.324Z,33.55
